createdAt,value
2022-09-23T00:02:47.886Z,100896.31
2022-09-23T00:06:01.517Z,100897.50
2022-09-23T00:09:04.183Z,100900.84
2022-09-23T00:12:08.990Z,100890.28
2022-09-23T00:15:11.924Z,100886.81
2022-09-23T00:18:14.425Z,100891.69
2022-09-23T00:21:18.074Z,100888.50
2022-09-23T00:24:20.899Z,100889.69
2022-09-23T00:27:23.425Z,100882.31
2022-09-23T00:30:25.969Z,100879.22
2022-09-23T00:33:29.988Z,100875.19
2022-09-23T00:36:35.441Z,100872.81
2022-09-23T00:39:37.890Z,100880.87
2022-09-23T00:42:50.037Z,100881.47
2022-09-23T00:45:52.606Z,100876.59
2022-09-23T00:49:11.628Z,100876.72
2022-09-23T00:52:18.123Z,100877.19
2022-09-23T00:55:27.988Z,100870.06
2022-09-23T00:58:35.714Z,100868.47
2022-09-23T01:01:38.835Z,100862.53
2022-09-23T01:04:41.471Z,100867.03
2022-09-23T01:07:45.985Z,100860.41
2022-09-23T01:10:55.177Z,100860.41
2022-09-23T01:14:16.819Z,100867.41
2022-09-23T01:17:36.217Z,100872.00
2022-09-23T01:20:59.497Z,100865.38
2022-09-23T01:24:23.755Z,100858.72
2022-09-23T01:27:54.864Z,100866.06
2022-09-23T01:31:16.655Z,100857.25
2022-09-23T01:34:26.296Z,100862.22
2022-09-23T01:37:41.167Z,100859.09
2022-09-23T01:41:10.401Z,100866.06
2022-09-23T01:44:29.614Z,100866.19
2022-09-23T01:47:41.455Z,100853.59
2022-09-23T01:50:56.944Z,100858.78
2022-09-23T01:54:16.051Z,100856.22
2022-09-23T01:57:44.055Z,100858.94
2022-09-23T02:01:00.418Z,100858.00
2022-09-23T02:04:10.374Z,100861.44
2022-09-23T02:07:28.737Z,100859.66
2022-09-23T02:10:36.170Z,100855.75
2022-09-23T02:13:50.734Z,100854.41
2022-09-23T02:16:56.248Z,100859.09
2022-09-23T02:20:02.363Z,100854.09
2022-09-23T02:23:13.188Z,100852.44
2022-09-23T02:26:21.833Z,100855.59
2022-09-23T02:29:40.395Z,100850.81
2022-09-23T02:32:58.991Z,100858.62
2022-09-23T02:36:08.124Z,100858.53
2022-09-23T02:39:14.284Z,100858.03
2022-09-23T02:42:21.911Z,100857.63
2022-09-23T02:45:24.411Z,100861.38
2022-09-23T02:48:34.558Z,100859.94
2022-09-23T02:51:38.341Z,100859.81
2022-09-23T02:54:40.975Z,100870.78
2022-09-23T02:57:43.591Z,100861.38
2022-09-23T03:01:13.143Z,100867.75
2022-09-23T03:04:36.015Z,100857.66
2022-09-23T03:08:00.208Z,100851.22
2022-09-23T03:11:11.399Z,100857.69
2022-09-23T03:14:23.154Z,100847.47
2022-09-23T03:17:44.793Z,100850.19
2022-09-23T03:20:53.940Z,100853.94
2022-09-23T03:24:00.176Z,100852.28
2022-09-23T03:27:05.767Z,100858.22
2022-09-23T03:30:09.010Z,100857.28
2022-09-23T03:33:13.228Z,100859.56
2022-09-23T03:36:37.887Z,100859.38
2022-09-23T03:39:44.500Z,100865.47
2022-09-23T03:42:50.264Z,100866.72
2022-09-23T03:45:57.568Z,100862.88
2022-09-23T03:49:09.558Z,100862.34
2022-09-23T03:52:11.995Z,100867.97
2022-09-23T03:55:16.479Z,100862.25
2022-09-23T03:58:18.884Z,100858.50
2022-09-23T04:01:24.661Z,100854.13
2022-09-23T04:04:32.519Z,100855.19
2022-09-23T04:07:39.719Z,100850.81
2022-09-23T04:10:42.362Z,100845.59
2022-09-23T04:13:44.839Z,100844.34
2022-09-23T04:16:48.300Z,100850.50
2022-09-23T04:19:50.845Z,100850.59
2022-09-23T04:22:53.215Z,100850.81
2022-09-23T04:25:55.810Z,100853.50
2022-09-23T04:28:58.657Z,100851.63
2022-09-23T04:32:01.358Z,100859.84
2022-09-23T04:35:04.697Z,100857.16
2022-09-23T04:38:07.450Z,100859.31
2022-09-23T04:41:10.019Z,100865.34
2022-09-23T04:44:16.016Z,100855.38
2022-09-23T04:47:19.474Z,100866.38
2022-09-23T04:50:21.976Z,100859.72
2022-09-23T04:53:24.480Z,100864.41
2022-09-23T04:56:29.288Z,100875.56
2022-09-23T04:59:31.892Z,100870.34
2022-09-23T05:02:36.813Z,100870.16
2022-09-23T05:05:39.368Z,100876.81
2022-09-23T05:08:46.375Z,100868.59
2022-09-23T05:11:48.986Z,100874.41
2022-09-23T05:14:51.427Z,100877.44
2022-09-23T05:17:58.164Z,100883.69
2022-09-23T05:21:01.267Z,100879.75
2022-09-23T05:24:04.303Z,100885.16
2022-09-23T05:27:07.895Z,100886.28
2022-09-23T05:30:11.760Z,100893.25
2022-09-23T05:33:14.385Z,100889.72
2022-09-23T05:36:20.743Z,100895.63
2022-09-23T05:39:24.055Z,100893.59
2022-09-23T05:42:26.685Z,100898.97
2022-09-23T05:45:29.783Z,100899.47
2022-09-23T05:48:33.611Z,100904.06
2022-09-23T05:51:36.151Z,100900.72
2022-09-23T05:54:38.695Z,100902.47
2022-09-23T05:57:41.148Z,100906.53
2022-09-23T06:00:44.291Z,100898.78
2022-09-23T06:03:48.373Z,100900.31
2022-09-23T06:06:50.985Z,100900.22
2022-09-23T06:09:54.092Z,100900.31
2022-09-23T06:12:57.171Z,100905.47
2022-09-23T06:15:59.863Z,100900.25
2022-09-23T06:19:06.710Z,100892.94
2022-09-23T06:22:10.975Z,100901.59
2022-09-23T06:25:13.615Z,100892.84
2022-09-23T06:28:16.173Z,100897.00
2022-09-23T06:31:21.845Z,100901.09
2022-09-23T06:34:24.467Z,100904.69
2022-09-23T06:37:26.933Z,100907.44
2022-09-23T06:40:31.286Z,100909.09
2022-09-23T06:43:34.141Z,100909.53
2022-09-23T06:46:38.226Z,100903.97
2022-09-23T06:49:41.296Z,100900.19
2022-09-23T06:52:51.224Z,100902.41
2022-09-23T06:56:07.740Z,100908.13
2022-09-23T06:59:13.208Z,100905.84
2022-09-23T07:02:16.089Z,100913.28
2022-09-23T07:05:18.647Z,100901.44
2022-09-23T07:08:21.502Z,100908.81
2022-09-23T07:11:23.963Z,100905.97
2022-09-23T07:14:30.001Z,100905.28
2022-09-23T07:17:32.589Z,100904.25
2022-09-23T07:20:38.528Z,100902.81
2022-09-23T07:23:42.529Z,100913.16
2022-09-23T07:26:49.075Z,100910.66
2022-09-23T07:29:52.203Z,100907.50
2022-09-23T07:32:54.840Z,100906.75
2022-09-23T07:35:57.631Z,100899.13
2022-09-23T07:39:03.697Z,100911.41
2022-09-23T07:42:06.828Z,100912.56
2022-09-23T07:45:09.527Z,100904.13
2022-09-23T07:48:12.124Z,100902.97
2022-09-23T07:51:21.180Z,100907.28
2022-09-23T07:54:25.653Z,100910.28
2022-09-23T07:57:28.130Z,100910.78
2022-09-23T08:00:30.860Z,100917.72
2022-09-23T08:03:33.780Z,100916.38
2022-09-23T08:06:40.531Z,100911.41
2022-09-23T08:09:44.157Z,100916.53
2022-09-23T08:12:47.928Z,100911.50
2022-09-23T08:15:55.198Z,100912.06
2022-09-23T08:18:58.114Z,100904.38
2022-09-23T08:22:00.675Z,100916.22
2022-09-23T08:25:22.111Z,100910.31
2022-09-23T08:28:26.195Z,100906.91
2022-09-23T08:31:28.798Z,100911.31
2022-09-23T08:34:31.262Z,100912.69
2022-09-23T08:37:33.763Z,100912.31
2022-09-23T08:40:41.559Z,100909.78
2022-09-23T08:43:49.166Z,100910.53
2022-09-23T08:47:06.621Z,100905.69
2022-09-23T08:50:16.356Z,100896.06
2022-09-23T08:53:30.215Z,100902.03
2022-09-23T08:56:35.405Z,100897.16
2022-09-23T08:59:43.246Z,100895.97
2022-09-23T09:02:45.924Z,100882.62
2022-09-23T09:05:54.171Z,100875.09
2022-09-23T09:09:02.234Z,100879.72
2022-09-23T09:12:38.488Z,100880.91
2022-09-23T09:15:50.205Z,100870.81
2022-09-23T09:18:55.263Z,100872.38
2022-09-23T09:21:58.052Z,100868.44
2022-09-23T09:25:10.120Z,100867.72
2022-09-23T09:28:20.521Z,100867.31
2022-09-23T09:31:36.323Z,100873.94
2022-09-23T09:34:54.979Z,100862.78
2022-09-23T09:37:57.494Z,100862.31
2022-09-23T09:41:02.260Z,100862.44
2022-09-23T09:44:16.357Z,100860.84
2022-09-23T09:47:48.429Z,100862.53
2022-09-23T09:50:52.343Z,100846.09
2022-09-23T09:53:57.012Z,100852.03
2022-09-23T09:57:04.973Z,100848.97
2022-09-23T10:00:35.789Z,100851.19
2022-09-23T10:03:40.108Z,100846.47
2022-09-23T10:06:42.766Z,100839.16
2022-09-23T10:09:50.463Z,100845.88
2022-09-23T10:12:53.005Z,100841.59
2022-09-23T10:15:57.004Z,100834.41
2022-09-23T10:19:00.897Z,100841.00
2022-09-23T10:22:06.426Z,100837.97
2022-09-23T10:25:15.692Z,100842.09
2022-09-23T10:28:51.495Z,100829.59
2022-09-23T10:32:21.049Z,100827.97
2022-09-23T10:35:25.331Z,100826.47
2022-09-23T10:38:27.998Z,100822.84
2022-09-23T10:42:00.197Z,100821.34
2022-09-23T10:45:41.055Z,100815.78
2022-09-23T10:49:00.043Z,100817.19
2022-09-23T10:52:17.276Z,100814.06
2022-09-23T10:55:32.186Z,100815.34
2022-09-23T10:58:53.518Z,100809.50
2022-09-23T11:02:23.868Z,100802.19
2022-09-23T11:05:41.789Z,100807.81
2022-09-23T11:09:15.781Z,100801.66
2022-09-23T11:12:27.481Z,100799.41
2022-09-23T11:15:41.238Z,100792.63
2022-09-23T11:18:51.154Z,100798.59
2022-09-23T11:22:15.990Z,100800.78
2022-09-23T11:25:31.371Z,100788.38
2022-09-23T11:28:56.098Z,100777.53
2022-09-23T11:32:27.723Z,100777.41
2022-09-23T11:35:41.785Z,100777.09
2022-09-23T11:38:46.815Z,100766.31
2022-09-23T11:41:56.949Z,100773.25
2022-09-23T11:45:16.341Z,100765.25
2022-09-23T11:48:26.114Z,100761.63
2022-09-23T11:51:42.601Z,100763.47
2022-09-23T11:55:02.064Z,100756.56
2022-09-23T11:58:24.870Z,100753.47
2022-09-23T12:01:37.882Z,100748.47
2022-09-23T12:04:56.516Z,100742.75
2022-09-23T12:08:15.888Z,100740.34
2022-09-23T12:11:38.033Z,100739.72
2022-09-23T12:14:50.280Z,100727.31
2022-09-23T12:18:01.639Z,100731.59
2022-09-23T12:21:18.294Z,100723.19
2022-09-23T12:24:33.032Z,100719.31
2022-09-23T12:27:39.390Z,100716.66
2022-09-23T12:30:42.435Z,100719.94
2022-09-23T12:33:52.888Z,100711.75
2022-09-23T12:37:02.880Z,100710.50
2022-09-23T12:40:28.495Z,100712.47
2022-09-23T12:43:35.690Z,100716.09
2022-09-23T12:46:38.953Z,100707.97
2022-09-23T12:49:42.517Z,100704.66
2022-09-23T12:52:45.040Z,100697.72
2022-09-23T12:55:51.770Z,100700.75
2022-09-23T12:59:09.812Z,100693.44
2022-09-23T13:02:27.840Z,100695.88
2022-09-23T13:05:48.816Z,100692.34
2022-09-23T13:08:52.558Z,100693.53
2022-09-23T13:12:05.514Z,100690.78
2022-09-23T13:15:25.826Z,100690.56
2022-09-23T13:18:48.291Z,100687.41
2022-09-23T13:22:09.083Z,100686.12
2022-09-23T13:25:41.215Z,100675.06
2022-09-23T13:28:54.161Z,100681.19
2022-09-23T13:32:00.294Z,100668.97
2022-09-23T13:35:02.976Z,100665.81
2022-09-23T13:38:19.339Z,100665.31
2022-09-23T13:41:28.852Z,100659.12
2022-09-23T13:44:31.438Z,100660.13
2022-09-23T13:47:35.759Z,100650.28
2022-09-23T13:50:41.097Z,100645.94
2022-09-23T13:53:52.099Z,100648.56
2022-09-23T13:56:56.649Z,100653.31
2022-09-23T14:00:21.062Z,100650.50
2022-09-23T14:03:26.000Z,100653.50
2022-09-23T14:06:32.086Z,100648.34
2022-09-23T14:09:36.526Z,100641.88
2022-09-23T14:12:39.663Z,100652.31
2022-09-23T14:15:42.219Z,100648.47
2022-09-23T14:18:47.033Z,100639.25
2022-09-23T14:21:54.339Z,100637.69
2022-09-23T14:24:57.585Z,100643.31
2022-09-23T14:28:00.667Z,100642.28
2022-09-23T14:31:03.303Z,100634.28
2022-09-23T14:34:06.760Z,100628.38
2022-09-23T14:37:51.529Z,100622.53
2022-09-23T14:41:16.950Z,100622.50
2022-09-23T14:44:22.876Z,100617.50
2022-09-23T14:47:25.737Z,100615.09
2022-09-23T14:50:48.708Z,100617.53
2022-09-23T14:53:51.264Z,100614.28
2022-09-23T14:56:54.766Z,100614.81
2022-09-23T15:00:06.824Z,100610.47
2022-09-23T15:03:15.704Z,100611.28
2022-09-23T15:06:18.532Z,100598.75
2022-09-23T15:09:23.981Z,100597.63
2022-09-23T15:12:27.745Z,100592.34
2022-09-23T15:15:31.261Z,100594.28
2022-09-23T15:18:36.272Z,100598.03
2022-09-23T15:21:44.261Z,100598.31
2022-09-23T15:24:47.149Z,100594.81
2022-09-23T15:28:03.142Z,100586.16
2022-09-23T15:31:06.301Z,100581.00
2022-09-23T15:34:11.005Z,100578.84
2022-09-23T15:37:13.654Z,100573.19
2022-09-23T15:40:22.864Z,100574.53
2022-09-23T15:43:27.270Z,100572.56
2022-09-23T15:46:30.579Z,100576.56
2022-09-23T15:49:36.379Z,100567.66
2022-09-23T15:52:40.071Z,100575.59
2022-09-23T15:55:42.882Z,100574.09
2022-09-23T15:58:45.425Z,100570.62
2022-09-23T16:01:48.270Z,100574.28
2022-09-23T16:04:51.139Z,100566.47
2022-09-23T16:07:54.011Z,100564.62
2022-09-23T16:10:56.733Z,100568.53
2022-09-23T16:14:00.958Z,100561.94
2022-09-23T16:17:03.714Z,100561.63
2022-09-23T16:20:06.797Z,100570.59
2022-09-23T16:23:37.661Z,100565.53
2022-09-23T16:26:41.161Z,100563.25
2022-09-23T16:29:43.733Z,100572.75
2022-09-23T16:32:46.326Z,100569.84
2022-09-23T16:35:50.225Z,100573.59
2022-09-23T16:38:55.640Z,100571.81
2022-09-23T16:41:58.726Z,100568.66
2022-09-23T16:45:03.148Z,100566.34
2022-09-23T16:48:06.377Z,100567.03
2022-09-23T16:51:14.995Z,100565.97
2022-09-23T16:54:20.332Z,100567.31
2022-09-23T16:57:33.835Z,100563.50
2022-09-23T17:01:21.186Z,100566.44
2022-09-23T17:05:09.329Z,100570.69
2022-09-23T17:08:37.526Z,100572.16
2022-09-23T17:12:25.784Z,100577.00
2022-09-23T17:16:02.849Z,100587.06
2022-09-23T17:20:02.332Z,100574.16
2022-09-23T17:23:34.886Z,100583.47
2022-09-23T17:26:54.934Z,100574.81
2022-09-23T17:30:00.499Z,100574.66
2022-09-23T17:33:03.275Z,100582.91
2022-09-23T17:36:08.047Z,100576.00
2022-09-23T17:39:10.897Z,100567.41
2022-09-23T17:42:14.749Z,100579.78
2022-09-23T17:45:17.309Z,100569.37
2022-09-23T17:48:21.703Z,100571.31
2022-09-23T17:51:25.345Z,100567.00
2022-09-23T17:54:28.091Z,100572.59
2022-09-23T17:57:30.657Z,100570.69
2022-09-23T18:00:33.365Z,100583.31
2022-09-23T18:03:36.016Z,100580.81
2022-09-23T18:06:38.747Z,100582.59
2022-09-23T18:09:44.576Z,100579.25
2022-09-23T18:12:47.262Z,100583.47
2022-09-23T18:15:50.554Z,100585.66
2022-09-23T18:18:59.202Z,100593.13
2022-09-23T18:22:01.884Z,100587.81
2022-09-23T18:25:22.759Z,100581.12
2022-09-23T18:28:34.018Z,100589.47
2022-09-23T18:31:38.688Z,100586.88
2022-09-23T18:34:41.421Z,100586.50
2022-09-23T18:37:44.025Z,100593.50
2022-09-23T18:40:56.209Z,100587.91
2022-09-23T18:43:59.006Z,100585.34
2022-09-23T18:47:03.565Z,100599.22
2022-09-23T18:50:26.105Z,100592.47
2022-09-23T18:53:28.699Z,100596.16
2022-09-23T18:56:37.263Z,100590.91
2022-09-23T18:59:40.526Z,100584.75
2022-09-23T19:02:46.493Z,100583.00
2022-09-23T19:05:49.739Z,100578.50
2022-09-23T19:08:53.845Z,100579.06
2022-09-23T19:11:56.594Z,100578.97
2022-09-23T19:14:59.110Z,100575.41
2022-09-23T19:18:02.329Z,100583.84
2022-09-23T19:21:12.167Z,100587.31
2022-09-23T19:24:19.953Z,100591.62
2022-09-23T19:27:23.300Z,100591.38
2022-09-23T19:30:26.071Z,100582.44
2022-09-23T19:33:28.899Z,100585.72
2022-09-23T19:36:37.895Z,100585.87
2022-09-23T19:39:41.059Z,100582.72
2022-09-23T19:42:43.663Z,100583.28
2022-09-23T19:45:53.700Z,100583.81
2022-09-23T19:48:57.394Z,100584.22
2022-09-23T19:52:00.497Z,100587.28
2022-09-23T19:55:03.120Z,100588.78
2022-09-23T19:58:05.751Z,100590.41
2022-09-23T20:01:08.615Z,100579.41
2022-09-23T20:04:12.483Z,100585.19
2022-09-23T20:07:19.377Z,100583.81
2022-09-23T20:10:22.908Z,100587.53
2022-09-23T20:13:25.562Z,100590.81
2022-09-23T20:16:30.111Z,100591.91
2022-09-23T20:19:32.774Z,100581.16
2022-09-23T20:22:35.411Z,100582.00
2022-09-23T20:25:56.717Z,100580.88
2022-09-23T20:29:02.506Z,100580.44
2022-09-23T20:32:05.414Z,100580.16
2022-09-23T20:35:08.374Z,100576.84
2022-09-23T20:38:11.147Z,100575.47
2022-09-23T20:41:23.264Z,100565.53
2022-09-23T20:44:25.940Z,100569.50
2022-09-23T20:47:28.470Z,100556.69
2022-09-23T20:50:31.113Z,100564.94
2022-09-23T20:53:37.335Z,100568.53
2022-09-23T20:56:40.225Z,100566.72
2022-09-23T20:59:43.683Z,100564.03
2022-09-23T21:02:46.296Z,100563.59
2022-09-23T21:05:49.942Z,100566.22
2022-09-23T21:08:53.634Z,100557.12
2022-09-23T21:11:56.111Z,100556.13
2022-09-23T21:14:58.757Z,100556.25
2022-09-23T21:18:01.253Z,100562.31
2022-09-23T21:21:04.860Z,100565.87
2022-09-23T21:24:36.158Z,100562.84
2022-09-23T21:27:30.743Z,100561.44
2022-09-23T21:30:33.254Z,100560.88
2022-09-23T21:33:39.053Z,100566.22
2022-09-23T21:36:43.256Z,100560.81
2022-09-23T21:40:05.745Z,100569.84
2022-09-23T21:43:08.377Z,100565.84
2022-09-23T21:46:15.658Z,100558.44
2022-09-23T21:49:18.221Z,100566.53
2022-09-23T21:52:20.749Z,100564.50
2022-09-23T21:55:25.467Z,100568.50
2022-09-23T21:58:29.239Z,100560.22
2022-09-23T22:01:35.215Z,100560.50
2022-09-23T22:04:37.965Z,100555.66
2022-09-23T22:07:40.557Z,100551.50
2022-09-23T22:10:43.130Z,100554.66
2022-09-23T22:13:45.690Z,100540.44
2022-09-23T22:16:48.316Z,100550.75
2022-09-23T22:19:51.333Z,100554.97
2022-09-23T22:22:54.437Z,100559.50
2022-09-23T22:26:02.279Z,100557.84
2022-09-23T22:29:26.595Z,100559.06
2022-09-23T22:32:41.277Z,100559.28
2022-09-23T22:35:43.850Z,100555.75
2022-09-23T22:38:46.310Z,100558.34
2022-09-23T22:41:50.885Z,100556.09
2022-09-23T22:44:55.645Z,100558.81
2022-09-23T22:47:58.205Z,100554.69
2022-09-23T22:51:04.513Z,100554.94
2022-09-23T22:54:07.474Z,100548.75
2022-09-23T22:57:09.979Z,100548.06
2022-09-23T23:00:13.163Z,100559.47
2022-09-23T23:03:20.699Z,100558.19
2022-09-23T23:06:23.254Z,100558.44
2022-09-23T23:09:26.176Z,100554.28
2022-09-23T23:12:34.711Z,100557.28
2022-09-23T23:15:40.458Z,100554.91
2022-09-23T23:18:43.554Z,100553.25
2022-09-23T23:21:46.135Z,100548.03
2022-09-23T23:24:48.635Z,100555.63
2022-09-23T23:27:51.150Z,100541.63
2022-09-23T23:30:53.669Z,100549.91
2022-09-23T23:33:56.207Z,100540.62
2022-09-23T23:36:58.696Z,100534.63
2022-09-23T23:40:03.357Z,100534.84
2022-09-23T23:43:05.906Z,100532.44
2022-09-23T23:46:08.875Z,100524.38
2022-09-23T23:49:11.514Z,100524.69
2022-09-23T23:52:14.035Z,100521.13
2022-09-23T23:55:17.118Z,100521.81
2022-09-23T23:58:19.633Z,100524.19
